sensor_id;sensor_type;location;lat;lon;timestamp;pressure;altitude;pressure_sealevel;temperature;humidity
18167;BME280;9208;42.688;23.404;2022-08-02T00:00:46;95303.94;;;21.15;89.26
18167;BME280;9208;42.688;23.404;2022-08-02T00:03:11;95309.47;;;21.07;88.67
18167;BME280;9208;42.688;23.404;2022-08-02T00:05:37;95304.84;;;21.10;87.32
18167;BME280;9208;42.688;23.404;2022-08-02T00:08:03;95302.94;;;21.05;87.27
18167;BME280;9208;42.688;23.404;2022-08-02T00:10:29;95308.13;;;21.01;87.18
18167;BME280;9208;42.688;23.404;2022-08-02T00:12:54;95315.22;;;21.02;87.23
18167;BME280;9208;42.688;23.404;2022-08-02T00:15:20;95314.78;;;20.90;88.13
18167;BME280;9208;42.688;23.404;2022-08-02T00:17:45;95305.06;;;20.84;88.59
18167;BME280;9208;42.688;23.404;2022-08-02T00:20:11;95305.22;;;20.78;88.75
18167;BME280;9208;42.688;23.404;2022-08-02T00:22:37;95306.78;;;20.66;89.39
18167;BME280;9208;42.688;23.404;2022-08-02T00:25:03;95306.78;;;20.66;89.77
18167;BME280;9208;42.688;23.404;2022-08-02T00:27:29;95302.47;;;20.58;91.27
18167;BME280;9208;42.688;23.404;2022-08-02T00:29:55;95295.81;;;20.61;91.88
18167;BME280;9208;42.688;23.404;2022-08-02T00:32:22;95303.41;;;20.60;92.33
18167;BME280;9208;42.688;23.404;2022-08-02T00:34:47;95293.72;;;20.54;92.31
18167;BME280;9208;42.688;23.404;2022-08-02T00:37:13;95301.88;;;20.52;92.17
18167;BME280;9208;42.688;23.404;2022-08-02T00:39:39;95302.22;;;20.48;92.33
18167;BME280;9208;42.688;23.404;2022-08-02T00:42:06;95295.56;;;20.51;92.12
18167;BME280;9208;42.688;23.404;2022-08-02T00:44:32;95301.13;;;20.51;92.03
18167;BME280;9208;42.688;23.404;2022-08-02T00:46:57;95301.53;;;20.55;91.52
18167;BME280;9208;42.688;23.404;2022-08-02T00:49:23;95304.81;;;20.46;91.32
18167;BME280;9208;42.688;23.404;2022-08-02T00:51:48;95307.38;;;20.44;91.13
18167;BME280;9208;42.688;23.404;2022-08-02T00:54:14;95305.50;;;20.39;91.31
18167;BME280;9208;42.688;23.404;2022-08-02T00:56:39;95305.16;;;20.43;91.27
18167;BME280;9208;42.688;23.404;2022-08-02T00:59:05;95307.38;;;20.44;91.26
18167;BME280;9208;42.688;23.404;2022-08-02T01:01:30;95302.69;;;20.39;91.26
18167;BME280;9208;42.688;23.404;2022-08-02T01:04:10;95314.78;;;20.42;90.82
18167;BME280;9208;42.688;23.404;2022-08-02T01:06:38;95311.06;;;20.39;90.72
18167;BME280;9208;42.688;23.404;2022-08-02T01:09:05;95303.94;;;20.31;91.43
18167;BME280;9208;42.688;23.404;2022-08-02T01:11:32;95306.50;;;20.29;91.65
18167;BME280;9208;42.688;23.404;2022-08-02T01:14:02;95303.94;;;20.31;90.93
18167;BME280;9208;42.688;23.404;2022-08-02T01:16:31;95301.28;;;20.25;90.88
18167;BME280;9208;42.688;23.404;2022-08-02T01:22:19;95304.78;;;20.18;90.67
18167;BME280;9208;42.688;23.404;2022-08-02T01:25:08;95306.81;;;20.18;90.66
18167;BME280;9208;42.688;23.404;2022-08-02T01:30:34;95295.25;;;20.14;91.24
18167;BME280;9208;42.688;23.404;2022-08-02T01:33:03;95309.19;;;20.14;91.54
18167;BME280;9208;42.688;23.404;2022-08-02T01:35:43;95300.97;;;20.08;92.19
18167;BME280;9208;42.688;23.404;2022-08-02T01:38:25;95306.09;;;20.04;93.17
18167;BME280;9208;42.688;23.404;2022-08-02T01:40:52;95303.53;;;20.06;93.34
18167;BME280;9208;42.688;23.404;2022-08-02T01:43:20;95301.19;;;20.10;93.33
18167;BME280;9208;42.688;23.404;2022-08-02T01:45:47;95310.25;;;20.11;93.59
18167;BME280;9208;42.688;23.404;2022-08-02T01:48:13;95301.91;;;20.11;94.36
18167;BME280;9208;42.688;23.404;2022-08-02T01:50:41;95301.19;;;20.10;94.64
18167;BME280;9208;42.688;23.404;2022-08-02T01:53:11;95297.09;;;20.11;94.99
18167;BME280;9208;42.688;23.404;2022-08-02T01:55:44;95302.22;;;20.07;96.07
18167;BME280;9208;42.688;23.404;2022-08-02T01:58:13;95302.66;;;20.11;95.74
18167;BME280;9208;42.688;23.404;2022-08-02T02:00:42;95300.53;;;20.04;95.13
18167;BME280;9208;42.688;23.404;2022-08-02T02:03:17;95301.22;;;19.97;95.20
18167;BME280;9208;42.688;23.404;2022-08-02T02:05:46;95296.53;;;19.92;95.87
18167;BME280;9208;42.688;23.404;2022-08-02T02:08:13;95299.66;;;19.89;95.93
18167;BME280;9208;42.688;23.404;2022-08-02T02:10:41;95298.03;;;19.93;96.21
18167;BME280;9208;42.688;23.404;2022-08-02T02:13:08;95293.00;;;19.92;96.97
18167;BME280;9208;42.688;23.404;2022-08-02T02:15:40;95300.88;;;19.80;98.33
18167;BME280;9208;42.688;23.404;2022-08-02T02:18:10;95310.03;;;19.68;99.16
18167;BME280;9208;42.688;23.404;2022-08-02T02:20:37;95301.13;;;19.69;98.54
18167;BME280;9208;42.688;23.404;2022-08-02T02:23:03;95295.59;;;19.69;97.53
18167;BME280;9208;42.688;23.404;2022-08-02T02:25:28;95307.47;;;19.57;97.52
18167;BME280;9208;42.688;23.404;2022-08-02T02:28:01;95302.38;;;19.48;97.60
18167;BME280;9208;42.688;23.404;2022-08-02T02:30:29;95311.75;;;19.37;98.06
18167;BME280;9208;42.688;23.404;2022-08-02T02:32:57;95312.28;;;19.36;98.56
18167;BME280;9208;42.688;23.404;2022-08-02T02:35:28;95317.06;;;19.35;98.56
18167;BME280;9208;42.688;23.404;2022-08-02T02:37:55;95305.75;;;19.33;98.01
18167;BME280;9208;42.688;23.404;2022-08-02T02:40:22;95311.84;;;19.32;97.91
18167;BME280;9208;42.688;23.404;2022-08-02T02:42:49;95305.53;;;19.31;97.93
18167;BME280;9208;42.688;23.404;2022-08-02T02:45:15;95302.75;;;19.31;97.83
18167;BME280;9208;42.688;23.404;2022-08-02T02:47:43;95308.31;;;19.31;97.67
18167;BME280;9208;42.688;23.404;2022-08-02T02:50:09;95305.22;;;19.35;97.10
18167;BME280;9208;42.688;23.404;2022-08-02T02:52:37;95298.56;;;19.38;96.89
18167;BME280;9208;42.688;23.404;2022-08-02T02:55:04;95307.56;;;19.31;97.50
18167;BME280;9208;42.688;23.404;2022-08-02T02:57:31;95305.53;;;19.31;96.98
18167;BME280;9208;42.688;23.404;2022-08-02T02:59:58;95316.13;;;19.33;96.35
18167;BME280;9208;42.688;23.404;2022-08-02T03:02:24;95312.28;;;19.36;95.60
18167;BME280;9208;42.688;23.404;2022-08-02T03:04:51;95316.72;;;19.39;95.79
18167;BME280;9208;42.688;23.404;2022-08-02T03:07:17;95317.16;;;19.43;94.89
18167;BME280;9208;42.688;23.404;2022-08-02T03:09:43;95319.63;;;19.46;95.76
18167;BME280;9208;42.688;23.404;2022-08-02T03:12:09;95323.34;;;19.49;94.67
18167;BME280;9208;42.688;23.404;2022-08-02T03:14:42;95320.56;;;19.49;94.06
18167;BME280;9208;42.688;23.404;2022-08-02T03:17:08;95316.63;;;19.44;94.38
18167;BME280;9208;42.688;23.404;2022-08-02T03:19:33;95315.13;;;19.43;94.94
18167;BME280;9208;42.688;23.404;2022-08-02T03:21:58;95304.53;;;19.42;95.01
18167;BME280;9208;42.688;23.404;2022-08-02T03:24:24;95319.50;;;19.39;94.77
18167;BME280;9208;42.688;23.404;2022-08-02T03:26:49;95320.69;;;19.43;95.32
18167;BME280;9208;42.688;23.404;2022-08-02T03:29:15;95313.50;;;19.48;96.60
18167;BME280;9208;42.688;23.404;2022-08-02T03:31:42;95316.84;;;19.46;98.05
18167;BME280;9208;42.688;23.404;2022-08-02T03:34:09;95312.53;;;19.45;99.67
18167;BME280;9208;42.688;23.404;2022-08-02T03:36:35;95320.88;;;19.45;100.00
18167;BME280;9208;42.688;23.404;2022-08-02T03:39:02;95325.28;;;19.41;100.00
18167;BME280;9208;42.688;23.404;2022-08-02T03:41:28;95322.84;;;19.37;100.00
18167;BME280;9208;42.688;23.404;2022-08-02T03:43:54;95325.22;;;19.33;100.00
18167;BME280;9208;42.688;23.404;2022-08-02T03:46:23;95328.00;;;19.20;100.00
18167;BME280;9208;42.688;23.404;2022-08-02T03:48:50;95324.13;;;19.23;100.00
18167;BME280;9208;42.688;23.404;2022-08-02T03:51:17;95318.06;;;19.25;100.00
18167;BME280;9208;42.688;23.404;2022-08-02T03:53:42;95318.13;;;19.32;100.00
18167;BME280;9208;42.688;23.404;2022-08-02T03:56:08;95330.84;;;19.41;100.00
18167;BME280;9208;42.688;23.404;2022-08-02T03:58:34;95334.38;;;19.41;100.00
18167;BME280;9208;42.688;23.404;2022-08-02T04:00:59;95342.31;;;19.37;100.00
18167;BME280;9208;42.688;23.404;2022-08-02T04:03:28;95342.41;;;19.45;100.00
18167;BME280;9208;42.688;23.404;2022-08-02T04:05:53;95341.00;;;19.51;100.00
18167;BME280;9208;42.688;23.404;2022-08-02T04:08:19;95351.44;;;19.58;100.00
18167;BME280;9208;42.688;23.404;2022-08-02T04:10:45;95353.91;;;19.62;98.93
18167;BME280;9208;42.688;23.404;2022-08-02T04:13:31;95352.09;;;19.64;99.58
18167;BME280;9208;42.688;23.404;2022-08-02T04:16:22;95353.34;;;19.63;100.00
18167;BME280;9208;42.688;23.404;2022-08-02T04:18:56;95357.84;;;19.66;100.00
18167;BME280;9208;42.688;23.404;2022-08-02T04:21:26;95357.38;;;19.75;99.30
18167;BME280;9208;42.688;23.404;2022-08-02T04:23:54;95353.94;;;19.82;97.76
18167;BME280;9208;42.688;23.404;2022-08-02T04:26:20;95344.78;;;19.95;96.97
18167;BME280;9208;42.688;23.404;2022-08-02T04:28:47;95355.03;;;20.00;95.38
18167;BME280;9208;42.688;23.404;2022-08-02T04:31:14;95348.94;;;20.01;94.55
18167;BME280;9208;42.688;23.404;2022-08-02T04:33:41;95357.25;;;20.14;93.43
18167;BME280;9208;42.688;23.404;2022-08-02T04:36:07;95350.34;;;20.28;91.74
18167;BME280;9208;42.688;23.404;2022-08-02T04:38:33;95346.59;;;20.46;90.31
18167;BME280;9208;42.688;23.404;2022-08-02T04:40:59;95359.00;;;20.66;88.78
18167;BME280;9208;42.688;23.404;2022-08-02T04:43:24;95360.75;;;20.76;86.72
18167;BME280;9208;42.688;23.404;2022-08-02T04:45:53;95357.47;;;20.85;86.75
18167;BME280;9208;42.688;23.404;2022-08-02T04:48:20;95360.53;;;20.74;94.42
18167;BME280;9208;42.688;23.404;2022-08-02T04:50:46;95352.56;;;20.78;93.52
18167;BME280;9208;42.688;23.404;2022-08-02T04:53:11;95355.94;;;20.84;93.10
18167;BME280;9208;42.688;23.404;2022-08-02T04:55:37;95358.31;;;20.80;93.68
18167;BME280;9208;42.688;23.404;2022-08-02T04:58:02;95362.63;;;20.81;93.20
18167;BME280;9208;42.688;23.404;2022-08-02T05:00:28;95357.19;;;20.76;93.33
18167;BME280;9208;42.688;23.404;2022-08-02T05:02:58;95355.72;;;20.75;93.02
18167;BME280;9208;42.688;23.404;2022-08-02T05:05:24;95365.91;;;20.72;92.55
18167;BME280;9208;42.688;23.404;2022-08-02T05:07:50;95361.88;;;20.81;91.74
18167;BME280;9208;42.688;23.404;2022-08-02T05:10:15;95370.53;;;20.90;90.48
18167;BME280;9208;42.688;23.404;2022-08-02T05:12:41;95375.53;;;20.92;90.61
18167;BME280;9208;42.688;23.404;2022-08-02T05:15:08;95376.69;;;20.96;92.05
18167;BME280;9208;42.688;23.404;2022-08-02T05:17:34;95379.06;;;20.92;92.47
18167;BME280;9208;42.688;23.404;2022-08-02T05:19:59;95380.44;;;20.78;93.52
18167;BME280;9208;42.688;23.404;2022-08-02T05:22:25;95375.03;;;20.80;93.13
18167;BME280;9208;42.688;23.404;2022-08-02T05:24:50;95381.03;;;20.84;92.29
18167;BME280;9208;42.688;23.404;2022-08-02T05:27:16;95377.22;;;20.95;90.91
18167;BME280;9208;42.688;23.404;2022-08-02T05:29:41;95379.28;;;20.94;89.98
18167;BME280;9208;42.688;23.404;2022-08-02T05:32:07;95376.53;;;21.02;89.29
18167;BME280;9208;42.688;23.404;2022-08-02T05:34:32;95382.69;;;21.08;88.53
18167;BME280;9208;42.688;23.404;2022-08-02T05:36:58;95371.41;;;21.13;87.97
18167;BME280;9208;42.688;23.404;2022-08-02T05:39:23;95380.56;;;21.21;86.63
18167;BME280;9208;42.688;23.404;2022-08-02T05:41:49;95381.88;;;21.28;86.07
18167;BME280;9208;42.688;23.404;2022-08-02T05:44:14;95384.50;;;21.33;85.38
18167;BME280;9208;42.688;23.404;2022-08-02T05:46:40;95380.47;;;21.42;84.22
18167;BME280;9208;42.688;23.404;2022-08-02T05:49:05;95385.69;;;21.45;83.51
18167;BME280;9208;42.688;23.404;2022-08-02T05:51:42;95386.88;;;21.57;82.89
18167;BME280;9208;42.688;23.404;2022-08-02T05:54:18;95388.75;;;21.62;82.22
18167;BME280;9208;42.688;23.404;2022-08-02T05:59:37;95404.81;;;21.77;80.40
18167;BME280;9208;42.688;23.404;2022-08-02T06:03:02;95403.34;;;21.83;79.08
18167;BME280;9208;42.688;23.404;2022-08-02T06:05:12;95395.91;;;21.86;78.24
18167;BME280;9208;42.688;23.404;2022-08-02T06:07:41;95395.97;;;21.93;76.41
18167;BME280;9208;42.688;23.404;2022-08-02T06:10:07;95400.97;;;21.95;76.24
18167;BME280;9208;42.688;23.404;2022-08-02T06:12:52;95401.56;;;22.01;76.07
18167;BME280;9208;42.688;23.404;2022-08-02T06:15:19;95400.81;;;22.08;75.24
18167;BME280;9208;42.688;23.404;2022-08-02T06:17:46;95397.69;;;22.11;74.34
18167;BME280;9208;42.688;23.404;2022-08-02T06:20:13;95401.03;;;22.17;73.88
18167;BME280;9208;42.688;23.404;2022-08-02T06:22:41;95401.59;;;22.23;73.42
18167;BME280;9208;42.688;23.404;2022-08-02T06:25:09;95411.13;;;22.28;73.73
18167;BME280;9208;42.688;23.404;2022-08-02T06:27:35;95414.09;;;22.37;72.75
18167;BME280;9208;42.688;23.404;2022-08-02T06:30:01;95406.84;;;22.42;72.55
18167;BME280;9208;42.688;23.404;2022-08-02T06:32:27;95411.94;;;22.51;72.28
18167;BME280;9208;42.688;23.404;2022-08-02T06:34:53;95407.28;;;22.53;71.95
18167;BME280;9208;42.688;23.404;2022-08-02T06:37:26;95418.66;;;22.63;71.36
18167;BME280;9208;42.688;23.404;2022-08-02T06:40:00;95416.97;;;22.67;71.95
18167;BME280;9208;42.688;23.404;2022-08-02T06:42:49;95414.00;;;22.80;71.67
18167;BME280;9208;42.688;23.404;2022-08-02T06:45:15;95421.06;;;22.81;70.66
18167;BME280;9208;42.688;23.404;2022-08-02T06:47:41;95418.09;;;22.87;69.91
18167;BME280;9208;42.688;23.404;2022-08-02T06:50:07;95417.31;;;22.94;69.19
18167;BME280;9208;42.688;23.404;2022-08-02T06:52:32;95414.16;;;23.05;68.01
18167;BME280;9208;42.688;23.404;2022-08-02T06:55:01;95421.06;;;23.11;67.20
18167;BME280;9208;42.688;23.404;2022-08-02T06:57:28;95418.06;;;23.17;66.01
18167;BME280;9208;42.688;23.404;2022-08-02T06:59:54;95424.41;;;23.25;65.33
18167;BME280;9208;42.688;23.404;2022-08-02T07:02:19;95425.69;;;23.31;64.72
18167;BME280;9208;42.688;23.404;2022-08-02T07:04:46;95428.88;;;23.35;63.22
18167;BME280;9208;42.688;23.404;2022-08-02T07:07:11;95435.59;;;23.40;62.55
18167;BME280;9208;42.688;23.404;2022-08-02T07:09:37;95430.13;;;23.49;63.15
18167;BME280;9208;42.688;23.404;2022-08-02T07:12:02;95432.19;;;23.56;62.45
18167;BME280;9208;42.688;23.404;2022-08-02T07:14:28;95453.63;;;23.61;60.21
18167;BME280;9208;42.688;23.404;2022-08-02T07:16:54;95457.50;;;23.66;59.64
18167;BME280;9208;42.688;23.404;2022-08-02T07:19:22;95449.28;;;23.75;59.89
18167;BME280;9208;42.688;23.404;2022-08-02T07:21:47;95446.25;;;23.88;59.96
18167;BME280;9208;42.688;23.404;2022-08-02T07:24:16;95449.97;;;23.98;59.16
18167;BME280;9208;42.688;23.404;2022-08-02T07:26:41;95461.72;;;24.04;58.63
18167;BME280;9208;42.688;23.404;2022-08-02T07:29:06;95457.59;;;24.05;58.35
18167;BME280;9208;42.688;23.404;2022-08-02T07:31:32;95458.88;;;24.12;57.63
18167;BME280;9208;42.688;23.404;2022-08-02T07:33:57;95460.91;;;24.19;57.95
18167;BME280;9208;42.688;23.404;2022-08-02T07:36:23;95459.72;;;24.29;57.41
18167;BME280;9208;42.688;23.404;2022-08-02T07:38:48;95451.28;;;24.37;57.48
18167;BME280;9208;42.688;23.404;2022-08-02T07:41:14;95452.16;;;24.47;57.70
18167;BME280;9208;42.688;23.404;2022-08-02T07:43:40;95444.28;;;24.53;57.74
18167;BME280;9208;42.688;23.404;2022-08-02T07:46:05;95442.19;;;24.61;57.73
18167;BME280;9208;42.688;23.404;2022-08-02T07:48:31;95455.25;;;24.66;56.53
18167;BME280;9208;42.688;23.404;2022-08-02T07:50:56;95447.91;;;24.70;56.97
18167;BME280;9208;42.688;23.404;2022-08-02T07:53:22;95449.94;;;24.77;56.98
18167;BME280;9208;42.688;23.404;2022-08-02T07:55:47;95446.84;;;24.90;56.64
18167;BME280;9208;42.688;23.404;2022-08-02T07:58:12;95451.63;;;24.97;56.43
18167;BME280;9208;42.688;23.404;2022-08-02T08:00:38;95453.13;;;24.98;55.79
18167;BME280;9208;42.688;23.404;2022-08-02T08:03:05;95463.13;;;25.09;55.44
18167;BME280;9208;42.688;23.404;2022-08-02T08:05:30;95455.97;;;25.15;55.77
18167;BME280;9208;42.688;23.404;2022-08-02T08:07:55;95456.03;;;25.32;55.45
18167;BME280;9208;42.688;23.404;2022-08-02T08:10:21;95461.00;;;25.41;54.96
18167;BME280;9208;42.688;23.404;2022-08-02T08:12:46;95456.97;;;25.52;54.76
18167;BME280;9208;42.688;23.404;2022-08-02T08:15:12;95464.19;;;25.63;54.48
18167;BME280;9208;42.688;23.404;2022-08-02T08:17:38;95466.72;;;25.68;53.88
18167;BME280;9208;42.688;23.404;2022-08-02T08:20:04;95473.09;;;25.68;53.51
18167;BME280;9208;42.688;23.404;2022-08-02T08:22:29;95465.16;;;25.74;53.97
18167;BME280;9208;42.688;23.404;2022-08-02T08:24:55;95467.72;;;25.80;53.82
18167;BME280;9208;42.688;23.404;2022-08-02T08:27:20;95467.63;;;25.88;53.32
18167;BME280;9208;42.688;23.404;2022-08-02T08:29:47;95461.88;;;25.86;53.29
18167;BME280;9208;42.688;23.404;2022-08-02T08:32:13;95460.06;;;25.81;53.46
18167;BME280;9208;42.688;23.404;2022-08-02T08:34:39;95459.38;;;25.90;53.29
18167;BME280;9208;42.688;23.404;2022-08-02T08:37:04;95448.16;;;25.90;53.07
18167;BME280;9208;42.688;23.404;2022-08-02T08:39:30;95464.53;;;26.01;53.21
18167;BME280;9208;42.688;23.404;2022-08-02T08:41:56;95459.13;;;26.12;52.87
18167;BME280;9208;42.688;23.404;2022-08-02T08:44:21;95461.13;;;26.19;52.64
18167;BME280;9208;42.688;23.404;2022-08-02T08:46:48;95461.00;;;26.27;52.30
18167;BME280;9208;42.688;23.404;2022-08-02T08:51:42;95461.81;;;26.37;52.17
18167;BME280;9208;42.688;23.404;2022-08-02T08:54:10;95462.03;;;26.48;52.14
18167;BME280;9208;42.688;23.404;2022-08-02T08:56:37;95459.47;;;26.60;52.06
18167;BME280;9208;42.688;23.404;2022-08-02T08:59:07;95455.38;;;26.70;52.04
18167;BME280;9208;42.688;23.404;2022-08-02T09:01:33;95467.84;;;26.77;51.46
18167;BME280;9208;42.688;23.404;2022-08-02T09:03:59;95463.44;;;26.83;51.07
18167;BME280;9208;42.688;23.404;2022-08-02T09:06:24;95463.00;;;26.87;50.84
18167;BME280;9208;42.688;23.404;2022-08-02T09:08:50;95467.47;;;26.90;50.92
18167;BME280;9208;42.688;23.404;2022-08-02T09:11:17;95455.34;;;26.97;51.49
18167;BME280;9208;42.688;23.404;2022-08-02T09:16:41;95478.47;;;27.05;49.96
18167;BME280;9208;42.688;23.404;2022-08-02T09:19:18;95484.09;;;27.05;50.29
18167;BME280;9208;42.688;23.404;2022-08-02T09:21:45;95476.16;;;27.11;50.07
18167;BME280;9208;42.688;23.404;2022-08-02T09:24:22;95468.72;;;27.06;50.31
18167;BME280;9208;42.688;23.404;2022-08-02T09:26:49;95459.22;;;27.01;50.97
18167;BME280;9208;42.688;23.404;2022-08-02T09:29:15;95460.88;;;27.14;50.49
18167;BME280;9208;42.688;23.404;2022-08-02T09:31:42;95470.06;;;27.14;50.57
18167;BME280;9208;42.688;23.404;2022-08-02T09:34:08;95454.16;;;27.26;50.40
18167;BME280;9208;42.688;23.404;2022-08-02T09:36:44;95452.53;;;27.33;50.23
18167;BME280;9208;42.688;23.404;2022-08-02T09:39:13;95453.13;;;27.41;49.94
18167;BME280;9208;42.688;23.404;2022-08-02T09:41:43;95458.03;;;27.50;49.85
18167;BME280;9208;42.688;23.404;2022-08-02T09:44:11;95466.97;;;27.65;49.69
18167;BME280;9208;42.688;23.404;2022-08-02T09:46:59;95476.19;;;27.75;48.88
18167;BME280;9208;42.688;23.404;2022-08-02T09:49:24;95469.22;;;27.86;49.04
18167;BME280;9208;42.688;23.404;2022-08-02T09:51:53;95478.28;;;27.94;48.48
18167;BME280;9208;42.688;23.404;2022-08-02T09:54:27;95470.44;;;28.02;48.48
18167;BME280;9208;42.688;23.404;2022-08-02T09:56:56;95480.78;;;28.09;47.48
18167;BME280;9208;42.688;23.404;2022-08-02T09:59:23;95477.25;;;27.99;48.02
18167;BME280;9208;42.688;23.404;2022-08-02T10:01:50;95462.72;;;27.93;48.43
18167;BME280;9208;42.688;23.404;2022-08-02T10:04:19;95464.50;;;27.98;48.21
18167;BME280;9208;42.688;23.404;2022-08-02T10:06:45;95465.84;;;27.97;48.28
18167;BME280;9208;42.688;23.404;2022-08-02T10:09:11;95465.97;;;27.99;48.19
18167;BME280;9208;42.688;23.404;2022-08-02T10:11:37;95467.03;;;28.03;48.18
18167;BME280;9208;42.688;23.404;2022-08-02T10:14:05;95466.13;;;28.10;47.54
18167;BME280;9208;42.688;23.404;2022-08-02T10:16:33;95470.13;;;28.17;47.60
18167;BME280;9208;42.688;23.404;2022-08-02T10:18:59;95466.88;;;28.20;47.61
18167;BME280;9208;42.688;23.404;2022-08-02T10:21:51;95462.56;;;28.29;47.22
18167;BME280;9208;42.688;23.404;2022-08-02T10:24:21;95458.97;;;28.28;47.07
18167;BME280;9208;42.688;23.404;2022-08-02T10:26:48;95467.59;;;28.21;47.33
18167;BME280;9208;42.688;23.404;2022-08-02T10:29:32;95457.38;;;28.25;47.35
18167;BME280;9208;42.688;23.404;2022-08-02T10:34:41;95460.31;;;28.27;47.03
18167;BME280;9208;42.688;23.404;2022-08-02T10:37:10;95470.56;;;28.32;46.22
18167;BME280;9208;42.688;23.404;2022-08-02T10:39:41;95467.00;;;28.32;46.12
18167;BME280;9208;42.688;23.404;2022-08-02T10:42:08;95474.88;;;28.43;45.75
18167;BME280;9208;42.688;23.404;2022-08-02T10:44:34;95480.19;;;28.39;45.83
18167;BME280;9208;42.688;23.404;2022-08-02T10:47:21;95479.63;;;28.50;45.88
18167;BME280;9208;42.688;23.404;2022-08-02T10:52:13;95459.13;;;28.49;46.93
18167;BME280;9208;42.688;23.404;2022-08-02T10:54:47;95458.53;;;28.51;46.70
18167;BME280;9208;42.688;23.404;2022-08-02T11:02:45;95449.34;;;28.31;46.65
18167;BME280;9208;42.688;23.404;2022-08-02T11:05:26;95455.00;;;28.41;46.92
18167;BME280;9208;42.688;23.404;2022-08-02T11:07:52;95448.16;;;28.44;46.62
18167;BME280;9208;42.688;23.404;2022-08-02T11:10:37;95459.00;;;28.47;46.36
18167;BME280;9208;42.688;23.404;2022-08-02T11:15:46;95460.66;;;28.41;45.98
18167;BME280;9208;42.688;23.404;2022-08-02T11:18:13;95462.53;;;28.48;45.93
18167;BME280;9208;42.688;23.404;2022-08-02T11:20:38;95455.00;;;28.41;45.90
18167;BME280;9208;42.688;23.404;2022-08-02T11:23:39;95461.38;;;28.41;45.90
18167;BME280;9208;42.688;23.404;2022-08-02T11:28:55;95454.53;;;28.54;45.95
18167;BME280;9208;42.688;23.404;2022-08-02T11:31:21;95459.88;;;28.50;45.28
18167;BME280;9208;42.688;23.404;2022-08-02T11:33:50;95470.25;;;28.57;45.14
18167;BME280;9208;42.688;23.404;2022-08-02T11:36:17;95471.72;;;28.58;45.57
18167;BME280;9208;42.688;23.404;2022-08-02T11:38:42;95467.44;;;28.57;45.66
18167;BME280;9208;42.688;23.404;2022-08-02T11:41:09;95455.84;;;28.53;46.43
18167;BME280;9208;42.688;23.404;2022-08-02T11:43:42;95450.03;;;28.60;46.20
18167;BME280;9208;42.688;23.404;2022-08-02T11:46:14;95447.78;;;28.68;46.25
18167;BME280;9208;42.688;23.404;2022-08-02T11:48:41;95445.53;;;28.76;46.47
18167;BME280;9208;42.688;23.404;2022-08-02T11:51:26;95446.72;;;28.83;46.04
18167;BME280;9208;42.688;23.404;2022-08-02T11:53:53;95445.53;;;28.86;46.22
18167;BME280;9208;42.688;23.404;2022-08-02T11:56:27;95449.50;;;28.92;45.84
18167;BME280;9208;42.688;23.404;2022-08-02T11:59:07;95453.81;;;28.93;44.97
18167;BME280;9208;42.688;23.404;2022-08-02T12:01:36;95453.38;;;28.87;45.30
18167;BME280;9208;42.688;23.404;2022-08-02T12:04:03;95443.41;;;28.96;45.39
18167;BME280;9208;42.688;23.404;2022-08-02T12:06:29;95455.69;;;29.10;45.11
18167;BME280;9208;42.688;23.404;2022-08-02T12:09:03;95457.03;;;29.09;45.14
18167;BME280;9208;42.688;23.404;2022-08-02T12:11:28;95455.56;;;29.08;45.03
18167;BME280;9208;42.688;23.404;2022-08-02T12:13:55;95465.31;;;29.16;43.81
18167;BME280;9208;42.688;23.404;2022-08-02T12:16:22;95477.81;;;29.13;43.89
18167;BME280;9208;42.688;23.404;2022-08-02T12:19:06;95476.31;;;29.22;43.82
18167;BME280;9208;42.688;23.404;2022-08-02T12:21:45;95475.25;;;29.27;43.88
18167;BME280;9208;42.688;23.404;2022-08-02T12:24:11;95466.97;;;29.19;44.19
18167;BME280;9208;42.688;23.404;2022-08-02T12:26:45;95459.69;;;29.16;44.49
18167;BME280;9208;42.688;23.404;2022-08-02T12:29:11;95454.78;;;29.17;44.71
18167;BME280;9208;42.688;23.404;2022-08-02T12:31:41;95451.22;;;29.16;44.74
18167;BME280;9208;42.688;23.404;2022-08-02T12:34:12;95459.38;;;29.22;43.75
18167;BME280;9208;42.688;23.404;2022-08-02T12:36:39;95460.97;;;29.25;44.28
18167;BME280;9208;42.688;23.404;2022-08-02T12:39:10;95460.31;;;29.36;43.94
18167;BME280;9208;42.688;23.404;2022-08-02T12:41:36;95463.16;;;29.36;44.50
18167;BME280;9208;42.688;23.404;2022-08-02T12:44:02;95465.47;;;29.49;43.88
18167;BME280;9208;42.688;23.404;2022-08-02T12:46:28;95462.16;;;29.52;43.42
18167;BME280;9208;42.688;23.404;2022-08-02T12:48:56;95474.50;;;29.57;43.09
18167;BME280;9208;42.688;23.404;2022-08-02T12:53:49;95468.00;;;29.45;43.23
18167;BME280;9208;42.688;23.404;2022-08-02T12:56:29;95449.31;;;29.40;44.41
18167;BME280;9208;42.688;23.404;2022-08-02T12:58:56;95448.44;;;29.37;44.67
18167;BME280;9208;42.688;23.404;2022-08-02T13:01:24;95437.44;;;29.32;44.81
18167;BME280;9208;42.688;23.404;2022-08-02T13:03:51;95446.34;;;29.38;44.23
18167;BME280;9208;42.688;23.404;2022-08-02T13:06:18;95446.81;;;29.34;44.46
18167;BME280;9208;42.688;23.404;2022-08-02T13:08:44;95442.03;;;29.37;44.35
18167;BME280;9208;42.688;23.404;2022-08-02T13:11:09;95442.31;;;29.41;44.23
18167;BME280;9208;42.688;23.404;2022-08-02T13:13:35;95445.69;;;29.49;43.91
18167;BME280;9208;42.688;23.404;2022-08-02T13:16:00;95455.09;;;29.42;42.97
18167;BME280;9208;42.688;23.404;2022-08-02T13:18:26;95449.63;;;29.34;43.16
18167;BME280;9208;42.688;23.404;2022-08-02T13:20:52;95452.56;;;29.36;43.49
18167;BME280;9208;42.688;23.404;2022-08-02T13:23:18;95458.94;;;29.46;43.21
18167;BME280;9208;42.688;23.404;2022-08-02T13:25:44;95455.16;;;29.53;42.68
18167;BME280;9208;42.688;23.404;2022-08-02T13:28:10;95468.50;;;29.62;42.72
18167;BME280;9208;42.688;23.404;2022-08-02T13:30:36;95468.94;;;29.68;42.51
18167;BME280;9208;42.688;23.404;2022-08-02T13:33:02;95450.16;;;29.73;42.88
18167;BME280;9208;42.688;23.404;2022-08-02T13:35:28;95445.16;;;29.83;42.90
18167;BME280;9208;42.688;23.404;2022-08-02T13:37:53;95453.31;;;29.88;43.04